createdAt,value
2022-11-28T00:03:19.091Z,34.80
2022-11-28T00:07:36.623Z,26.77
2022-11-28T00:11:54.030Z,25.03
2022-11-28T00:16:15.928Z,55.03
2022-11-28T00:20:33.352Z,57.60
2022-11-28T00:24:50.501Z,41.07
2022-11-28T00:29:09.201Z,39.92
2022-11-28T00:33:26.767Z,42.38
2022-11-28T00:37:44.012Z,32.00
2022-11-28T00:42:01.221Z,23.63
2022-11-28T00:46:19.981Z,26.98
2022-11-28T00:50:37.248Z,34.05
2022-11-28T00:54:54.633Z,34.05
2022-11-28T00:59:11.953Z,27.83
2022-11-28T01:03:29.146Z,36.83
2022-11-28T01:07:46.362Z,42.03
2022-11-28T01:12:03.742Z,34.63
2022-11-28T01:16:21.036Z,37.50
2022-11-28T01:20:38.332Z,29.87
2022-11-28T01:24:55.547Z,32.67
2022-11-28T01:29:13.057Z,28.95
2022-11-28T01:33:30.570Z,29.52
2022-11-28T01:37:47.745Z,33.27
2022-11-28T01:42:05.000Z,32.47
2022-11-28T01:46:22.216Z,29.23
2022-11-28T01:50:41.805Z,25.83
2022-11-28T01:55:01.231Z,30.33
2022-11-28T01:59:20.449Z,24.67
2022-11-28T02:03:46.018Z,27.70
2022-11-28T02:08:03.676Z,29.45
2022-11-28T02:12:39.294Z,22.63
2022-11-28T02:17:28.494Z,20.92
2022-11-28T02:22:20.098Z,25.83
2022-11-28T02:26:55.704Z,21.58
2022-11-28T02:31:25.180Z,21.90
2022-11-28T02:35:54.649Z,28.20
2022-11-28T02:40:27.721Z,23.92
2022-11-28T02:44:54.646Z,25.05
2022-11-28T02:49:35.938Z,24.73
2022-11-28T02:53:55.116Z,23.92
2022-11-28T02:58:12.657Z,21.63
2022-11-28T03:02:32.698Z,19.30
2022-11-28T03:06:59.917Z,25.75
2022-11-28T03:12:02.701Z,22.85
2022-11-28T03:16:28.589Z,25.45
2022-11-28T03:20:51.601Z,23.23
2022-11-28T03:25:25.073Z,22.73
2022-11-28T03:29:48.722Z,20.63
2022-11-28T03:34:08.492Z,25.90
2022-11-28T03:38:31.848Z,23.55
2022-11-28T03:42:58.382Z,21.55
2022-11-28T03:47:15.857Z,22.67
2022-11-28T03:51:49.685Z,21.93
2022-11-28T03:56:25.092Z,24.10
2022-11-28T04:00:52.530Z,20.50
2022-11-28T04:05:32.298Z,20.73
2022-11-28T04:09:56.262Z,31.67
2022-11-28T04:14:40.443Z,45.95
2022-11-28T04:19:07.557Z,48.45
2022-11-28T04:23:26.149Z,46.72
2022-11-28T04:27:49.656Z,50.38
2022-11-28T04:32:09.481Z,45.70
2022-11-28T04:36:28.368Z,46.50
2022-11-28T04:40:53.597Z,37.30
2022-11-28T04:45:42.289Z,37.60
2022-11-28T04:49:59.846Z,59.35
2022-11-28T04:54:31.421Z,43.45
2022-11-28T04:58:50.813Z,32.30
2022-11-28T05:03:09.733Z,35.83
2022-11-28T05:07:27.005Z,32.30
2022-11-28T05:11:44.320Z,31.67
2022-11-28T05:16:03.548Z,32.85
2022-11-28T05:20:20.920Z,50.72
2022-11-28T05:24:38.147Z,49.30
2022-11-28T05:28:56.992Z,36.55
2022-11-28T05:33:14.191Z,37.15
2022-11-28T05:37:31.619Z,24.05
2022-11-28T05:41:48.959Z,23.23
2022-11-28T05:46:06.815Z,11.27
2022-11-28T05:50:24.115Z,17.65
2022-11-28T05:54:41.679Z,16.33
2022-11-28T05:58:58.970Z,8.70
2022-11-28T06:03:16.264Z,7.13
2022-11-28T06:07:33.642Z,7.63
2022-11-28T06:11:50.840Z,10.07
2022-11-28T06:16:16.588Z,7.82
2022-11-28T06:20:35.777Z,9.60
2022-11-28T06:24:53.079Z,7.78
2022-11-28T06:29:10.372Z,8.52
2022-11-28T06:33:28.051Z,6.68
2022-11-28T06:37:45.224Z,16.57
2022-11-28T06:42:03.035Z,13.60
2022-11-28T06:46:21.848Z,9.88
2022-11-28T06:50:39.142Z,12.98
2022-11-28T06:54:56.335Z,16.38
2022-11-28T06:59:13.704Z,14.05
2022-11-28T07:03:31.004Z,13.50
2022-11-28T07:07:54.220Z,14.18
2022-11-28T07:12:11.732Z,14.45
2022-11-28T07:16:31.464Z,15.13
2022-11-28T07:20:49.509Z,12.52
2022-11-28T07:25:07.337Z,14.30
2022-11-28T07:29:24.664Z,15.98
2022-11-28T07:33:44.764Z,20.98
2022-11-28T07:38:01.976Z,15.77
2022-11-28T07:42:19.306Z,17.80
2022-11-28T07:46:36.625Z,13.25
2022-11-28T07:50:53.874Z,15.55
2022-11-28T07:55:11.128Z,12.77
2022-11-28T07:59:28.374Z,12.75
2022-11-28T08:03:46.741Z,18.02
2022-11-28T08:08:04.225Z,15.77
2022-11-28T08:12:21.440Z,19.13
2022-11-28T08:16:41.268Z,14.35
2022-11-28T08:21:09.660Z,14.75
2022-11-28T08:25:27.019Z,19.88
2022-11-28T08:29:46.165Z,16.92
2022-11-28T08:34:09.365Z,18.17
2022-11-28T08:38:26.621Z,13.40
2022-11-28T08:42:43.812Z,16.73
2022-11-28T08:47:01.021Z,16.77
2022-11-28T08:51:23.716Z,16.77
2022-11-28T08:55:42.066Z,21.65
2022-11-28T08:59:59.390Z,20.30
2022-11-28T09:04:16.713Z,20.15
2022-11-28T09:08:34.115Z,14.82
2022-11-28T09:12:51.874Z,15.48
2022-11-28T09:17:09.218Z,15.47
2022-11-28T09:21:26.934Z,17.42
2022-11-28T09:25:44.096Z,19.23
2022-11-28T09:30:01.634Z,14.40
2022-11-28T09:34:18.868Z,15.60
2022-11-28T09:38:36.848Z,45.83
2022-11-28T09:42:54.141Z,36.40
2022-11-28T09:47:26.759Z,19.52
2022-11-28T09:52:00.467Z,33.60
2022-11-28T09:56:22.245Z,55.55
2022-11-28T10:00:47.236Z,63.67
2022-11-28T10:05:06.972Z,36.10
2022-11-28T10:09:37.397Z,24.77
2022-11-28T10:14:28.110Z,20.88
2022-11-28T10:18:52.296Z,18.50
2022-11-28T10:23:21.872Z,16.13
2022-11-28T10:27:40.517Z,46.40
2022-11-28T10:36:32.041Z,12.97
2022-11-28T10:41:01.781Z,12.45
2022-11-28T10:45:36.737Z,9.02
2022-11-28T10:50:06.938Z,8.57
2022-11-28T10:54:42.873Z,11.10
2022-11-28T10:59:36.023Z,11.82
2022-11-28T11:03:53.274Z,11.07
2022-11-28T11:08:21.004Z,11.82
2022-11-28T11:12:38.695Z,11.75
2022-11-28T11:16:59.276Z,13.60
2022-11-28T11:21:21.135Z,12.05
2022-11-28T11:25:46.785Z,15.73
2022-11-28T11:30:34.271Z,13.95
2022-11-28T11:34:51.839Z,12.18
2022-11-28T11:39:12.388Z,11.02
2022-11-28T11:43:32.019Z,15.13
2022-11-28T11:47:49.200Z,15.05
2022-11-28T11:52:15.230Z,14.80
2022-11-28T11:56:37.739Z,12.63
2022-11-28T12:00:57.350Z,14.45
2022-11-28T12:05:41.730Z,16.15
2022-11-28T12:10:15.285Z,14.10
2022-11-28T12:14:35.103Z,15.60
2022-11-28T12:19:14.612Z,18.13
2022-11-28T12:28:53.800Z,16.02
2022-11-28T12:33:16.890Z,22.10
2022-11-28T12:38:09.862Z,21.98
2022-11-28T12:42:27.232Z,23.85
2022-11-28T12:46:53.155Z,19.85
2022-11-28T12:51:37.079Z,18.00
2022-11-28T12:56:06.089Z,16.65
2022-11-28T13:05:05.253Z,13.70
2022-11-28T13:09:33.709Z,15.70
2022-11-28T13:14:18.388Z,15.10
2022-11-28T13:19:02.301Z,16.15
2022-11-28T13:23:29.139Z,18.60
2022-11-28T13:27:49.320Z,17.98
2022-11-28T13:32:18.397Z,17.10
2022-11-28T13:46:10.231Z,17.13
2022-11-28T13:50:35.999Z,16.95
2022-11-28T13:54:54.887Z,17.42
2022-11-28T13:59:31.241Z,17.40
2022-11-28T14:04:02.576Z,18.50
2022-11-28T14:08:35.617Z,16.60
2022-11-28T14:13:12.055Z,22.83
2022-11-28T14:17:44.470Z,17.90
2022-11-28T14:22:07.492Z,18.55
2022-11-28T14:26:36.976Z,18.95
2022-11-28T14:31:12.784Z,19.02
2022-11-28T14:35:54.801Z,20.85
2022-11-28T14:40:49.242Z,18.15
2022-11-28T14:45:41.735Z,16.95
2022-11-28T14:50:20.695Z,18.83
2022-11-28T14:54:43.297Z,24.10
2022-11-28T14:59:03.410Z,25.63
2022-11-28T15:03:40.564Z,20.95
2022-11-28T15:08:21.333Z,21.63
2022-11-28T15:12:51.872Z,19.98
2022-11-28T15:17:13.918Z,22.35
2022-11-28T15:21:33.174Z,20.25
2022-11-28T15:25:55.355Z,20.63
2022-11-28T15:30:21.702Z,29.48
2022-11-28T15:34:39.190Z,19.85
2022-11-28T15:38:57.294Z,25.75
2022-11-28T15:43:14.834Z,23.48
2022-11-28T15:47:32.534Z,24.55
2022-11-28T15:51:55.217Z,18.90
2022-11-28T15:56:15.953Z,22.50
2022-11-28T16:00:33.257Z,24.67
2022-11-28T16:04:54.944Z,23.50
2022-11-28T16:09:17.910Z,24.67
2022-11-28T16:13:38.493Z,24.75
2022-11-28T16:17:56.315Z,27.90
2022-11-28T16:22:27.105Z,23.73
2022-11-28T16:26:55.073Z,22.73
2022-11-28T16:31:13.683Z,25.15
2022-11-28T16:35:40.418Z,19.92
2022-11-28T16:40:06.324Z,20.15
2022-11-28T16:44:24.877Z,20.63
2022-11-28T16:53:05.424Z,19.17
2022-11-28T16:57:26.545Z,20.05
2022-11-28T17:01:51.810Z,17.13
2022-11-28T17:06:23.866Z,15.93
2022-11-28T17:10:41.096Z,15.95
2022-11-28T17:14:58.682Z,16.60
2022-11-28T17:19:16.325Z,15.82
2022-11-28T17:23:33.500Z,19.77
2022-11-28T17:27:52.585Z,18.92
2022-11-28T17:32:14.495Z,25.35
2022-11-28T17:36:31.735Z,16.73
2022-11-28T17:40:49.083Z,13.73
2022-11-28T17:45:15.341Z,14.13
2022-11-28T17:49:32.621Z,13.95
2022-11-28T17:53:50.643Z,17.60
2022-11-28T17:58:16.785Z,16.90
2022-11-28T18:02:34.336Z,30.77
2022-11-28T18:06:51.655Z,19.27
2022-11-28T18:11:11.426Z,15.88
2022-11-28T18:15:29.163Z,16.70
2022-11-28T18:19:46.540Z,20.83
2022-11-28T18:24:04.687Z,20.35
2022-11-28T18:28:22.063Z,17.90
2022-11-28T18:32:39.605Z,17.52
2022-11-28T18:37:00.710Z,18.15
2022-11-28T18:41:18.093Z,14.52
2022-11-28T18:45:35.430Z,12.73
2022-11-28T18:49:52.646Z,15.35
2022-11-28T18:54:09.914Z,16.85
2022-11-28T18:58:27.142Z,15.93
2022-11-28T19:02:44.324Z,16.70
2022-11-28T19:07:02.505Z,16.33
2022-11-28T19:11:20.070Z,15.45
2022-11-28T19:15:40.958Z,17.77
2022-11-28T19:19:58.190Z,18.63
2022-11-28T19:24:15.432Z,18.88
2022-11-28T19:28:34.099Z,16.83
2022-11-28T19:32:51.272Z,17.05
2022-11-28T19:37:08.477Z,16.98
2022-11-28T19:41:27.241Z,17.48
2022-11-28T19:45:44.460Z,17.98
2022-11-28T19:50:01.784Z,16.70
2022-11-28T19:54:22.283Z,16.88
2022-11-28T19:58:40.251Z,19.95
2022-11-28T20:02:57.560Z,19.35
2022-11-28T20:07:15.741Z,17.20
2022-11-28T20:11:35.442Z,21.75
2022-11-28T20:15:52.609Z,18.65
2022-11-28T20:20:10.400Z,18.75
2022-11-28T20:24:27.686Z,16.47
2022-11-28T20:28:45.637Z,16.88
2022-11-28T20:33:02.902Z,16.05
2022-11-28T20:37:20.329Z,17.33
2022-11-28T20:41:37.599Z,16.85
2022-11-28T20:45:55.690Z,18.15
2022-11-28T20:50:12.912Z,17.67
2022-11-28T20:54:30.178Z,17.67
2022-11-28T20:58:47.545Z,17.73
2022-11-28T21:03:04.753Z,18.40
2022-11-28T21:07:22.857Z,19.52
2022-11-28T21:16:22.935Z,26.23
2022-11-28T21:20:43.024Z,25.10
2022-11-28T21:25:00.321Z,23.92
2022-11-28T21:29:17.626Z,26.50
2022-11-28T21:33:35.183Z,31.83
2022-11-28T21:37:52.404Z,28.13
2022-11-28T21:42:09.611Z,31.48
2022-11-28T21:46:27.349Z,27.83
2022-11-28T21:50:51.344Z,29.03
2022-11-28T21:55:08.716Z,34.42
2022-11-28T21:59:25.876Z,27.88
2022-11-28T22:03:43.982Z,28.48
2022-11-28T22:08:01.729Z,27.75
2022-11-28T22:12:18.979Z,26.05
2022-11-28T22:16:36.237Z,29.23
2022-11-28T22:21:01.793Z,32.03
2022-11-28T22:25:19.027Z,34.03
2022-11-28T22:29:36.325Z,32.92
2022-11-28T22:33:53.542Z,33.70
2022-11-28T22:38:11.147Z,37.70
2022-11-28T22:42:28.368Z,39.78
2022-11-28T22:46:45.610Z,40.85
2022-11-28T22:51:10.997Z,45.03
2022-11-28T22:55:28.370Z,38.38
2022-11-28T22:59:45.620Z,41.72
2022-11-28T23:04:03.474Z,42.67
2022-11-28T23:08:20.676Z,41.50
2022-11-28T23:12:38.109Z,56.85
2022-11-28T23:16:55.328Z,63.03
2022-11-28T23:21:13.562Z,45.17
2022-11-28T23:25:30.842Z,46.20
2022-11-28T23:29:48.114Z,53.88
2022-11-28T23:34:06.487Z,53.35
2022-11-28T23:38:23.678Z,46.20
2022-11-28T23:42:41.725Z,61.70
2022-11-28T23:46:59.005Z,56.78
2022-11-28T23:51:18.257Z,52.80
2022-11-28T23:55:35.484Z,64.32
2022-11-28T23:59:52.783Z,44.33
